首页
METAR-TAF:

METAR-TAF

机场 :

汉诺威-朗根哈根机场

汉诺威, 德国

纬度: 52-28N, 经度: 009-41E, 海拔: 56米

当前天气观测

该预报发布于35分钟前的14:50 UTC
风速6节,风向东南,在南转西南之间变化
温度 25°C
湿度 44%
气压 1020 hPa
能见度10公里或以上
1500米以下无云,无积雨云

METAR: EDDV 171450Z 14006KT 100V210 CAVOK 25/12 Q1020 NOSIG

时间: 17:25 (15:25 UTC)

预报

该预报发布于4小时和25分钟前的11:00 UTC
预报有效从17日的 12点(UTC)到 18日的 12点(UTC)
风速4节,风向东南
能见度10公里或以上
1500米以下无云,无积雨云
成为
从 18日的 09点(UTC)到 18日的 11点(UTC)
风速6节,风向南转西南

TAF: EDDV 171100Z 1712/1812 14004KT CAVOK BECMG 1809/1811 20006KT

超过4000个机场的气象观测和天气预报(METAR&TAF报告)。

可查询的气象台以黄色和红色小点在地图上表示。

将鼠标移到小点上方,可查看气象台名称。

然后点击查看天气观测和预报。

如需切换地图:点击带黑十字的绿色按钮放大地图;点击带横线的绿色按钮缩小地图;或者点击绿色箭头查看邻近地区的地图。


METAR-TAF: